Jackson Evers International Airport Jackson US
ICAO: KJAN
IATA: JAN
Category: Large
Scheduled Services: Yes

Elevation: 346 ft
TransAlt. 18000 ft.

Airport Communications:
APP/DEP:123.9
ATIS:121.05
CTAF:120.9
GND:121.7
ANG COMD POST:26.46
GREENWOOD RDO:122.2
TWR:120.9
UNICOM:122.95

KJAN Zoom In..

Runways:

(A) RW 16L length 8500 ft width 150 ft
ILS 110.50 / hdg 158

(B) RW 16R length 8500 ft width 150 ft
---- / hdg 158

(C) RW 34L length 8500 ft width 150 ft
ILS 109.30 / hdg 338

(D) RW 34R length 8500 ft width 150 ft
---- / hdg 338

Location; KJAN
Day. 04 / Time. 04.58 Zulu
* Altimeter: 30.15
* Temperature: 08° c. 46.4°f.
* Wind from: 350° Speed 07 kn.
Dewpoint: 07° c.
Visibility: 10 Statute Miles.
Clouds: Scattered 600 ft.
Clouds: Broken 1000 ft.
Clouds: Overcast 2600 ft.

KJAN 040458Z AUTO 35007KT 10SM SCT006 BKN010 OVC026 08/07 A3015 RMK AO2 T00830072

Going to: --> -->


Wind From 350°
Speed 07 kn.

 
 
jpsmedia worldairports.se 2020   terms of use